Terminal Aerodrome Forecast
Issued by NWS

Home | Current Version | Previous Version | Text Only | Print | Product List | Glossary On
Versions: 1 2 3 4 5 6 7 8 9 10 11 12 13 14 15 16 17 18 19 20 21 22 23 24 25
380
FTUS43 KFGF 200521 AAB
TAFDVL
TAF AMD
KDVL 200521Z 2005/2106 14009KT 1/4SM FG OVC003
      TEMPO 2009/2012 4SM BR OVC012
     FM201200 21005KT P6SM VCSH OVC010
     FM201600 27011KT P6SM OVC010
     FM202000 28015G23KT P6SM SCT015=

USA.gov is the U.S. government's official web portal to all federal, state and local government web resources and services.